Katmai National Park, AK

1:05 PM AKDT on July 29, 2014 (GMT -0800)
King Salmon (PAKN) Elev 46 ft | 58.68 °N, 156.66 °W | Change Station

Current weather conditions updated 11 minutes ago

Scattered Clouds
Scattered Clouds
67 °F
Feels Like 67 °F
N
17
Wind Variable Wind from NE
Gusts 23 mph

Today is forecast to be Much Warmer than yesterday.

Today
High -- | Low -- °F
--% Chance of Precip.
Yesterday
High -- | Low -- °F
Precip. -- in
6:09 AM 10:54 PM
Waxing Crescent, 8% visible
Pressure 29.98 in
Visibility 10.0 miles
Clouds Scattered Clouds 4200 ft
Dew Point 50 °F
Humidity 54%
Rainfall 0.00 in
Snow Depth Not available.
UV 5 out of 12
Pollen Not available.
Air Quality Not available.
Flu Activity Not available.
METAR PAKN 292054Z 05015G20KT 10SM SCT042 19/10 A2998 RMK AO2 SLP152 T01940100 $

More Conditions Fewer Conditions

Pressure 29.98 in
Visibility 10.0 miles
Clouds Scattered Clouds 4200 ft
Dew Point 50 °F
Humidity 54%
Rainfall 0.00 in
Snow Depth Not available.
UV 5 out of 12
Pollen Not available.
Air Quality Not available.
Flu Activity Not available.
METAR PAKN 292054Z 05015G20KT 10SM SCT042 19/10 A2998 RMK AO2 SLP152 T01940100 $

More Conditions Fewer Conditions

10-Day Weather Forecast

Almanac

Astronomy

Jul. 29, 2014 Rise Set
Actual Time 6:09 AM AKDT 10:54 PM AKDT
Civil Twilight 5:12 AM AKDT 11:51 PM AKDT
Nautical Twilight 3:19 AM AKDT 1:38 AM AKDT
Astronomical Twilight Sun does not rise Sun does not rise
Moon 9:50 AM AKDT 11:12 PM AKDT
Length of Visible Light 18h 39m
Length of Day
16h 45m
Tomorrow will be 4m 23s shorter.
Waxing Crescent, 8% of the Moon is Illuminated
Today
Waxing Crescent
Aug 3
First Quarter
Aug 10
Full
Aug 17
Last Quarter
Aug 25
New

Today's Extremes

State Highs State Lows

Community

WunderPhotos

Upload Photos

1,738,862 photos uploaded!

Nearby

Snow Depth

Station Depth Elevation
Mcneil Canyon 1 in 1320 ft
MF Bradley River 215 in 2300 ft
Nuka Glacier 57 in 1250 ft
Cooper Lake 36 in 1200 ft
Grouse Creek Divide 0 in 700 ft

Earthquake Activity

City Distance Mag. Time & Date
No recent earthquake activity has been reported nearby.
Minimum magnitude displayed is 2.5.

Coastal Water Temperatures

Place Temperature
No Stations Reporting

Nearby Weather Stations

There are no personal weather stations in this area.